createdAt,value
2018-07-01T06:10:18.051Z,2.28
2018-07-01T06:12:45.199Z,2.10
2018-07-01T06:15:12.258Z,2.25
2018-07-01T06:17:39.298Z,2.33
2018-07-01T06:20:06.348Z,2.08
2018-07-01T06:28:23.911Z,2.10
2018-07-01T06:31:09.661Z,2.30
2018-07-01T06:33:54.342Z,2.05
2018-07-01T06:36:21.317Z,2.40
2018-07-01T06:38:48.362Z,2.20
2018-07-01T06:41:15.312Z,2.37
2018-07-01T06:43:42.253Z,2.30
2018-07-01T06:46:09.255Z,2.28
2018-07-01T06:48:36.150Z,2.55
2018-07-01T06:51:03.192Z,2.40
2018-07-01T06:53:30.241Z,2.30
2018-07-01T06:55:57.296Z,2.45
2018-07-01T06:58:24.446Z,2.53
2018-07-01T07:03:52.698Z,2.42
2018-07-01T07:06:37.392Z,2.87
2018-07-01T07:09:06.557Z,2.20
2018-07-01T07:11:34.469Z,2.15
2018-07-01T07:14:01.473Z,2.15
2018-07-01T07:16:28.464Z,2.42
2018-07-01T07:18:56.129Z,2.20
2018-07-01T07:21:23.180Z,2.15
2018-07-01T07:23:50.532Z,2.22
2018-07-01T07:26:17.580Z,1.90
2018-07-01T07:28:44.730Z,1.90
2018-07-01T07:31:11.784Z,2.25
2018-07-01T07:33:38.828Z,2.12
2018-07-01T07:36:05.876Z,2.30
2018-07-01T07:38:32.822Z,2.12
2018-07-01T07:40:59.816Z,2.00
2018-07-01T07:43:27.021Z,2.15
2018-07-01T07:45:54.076Z,2.40
2018-07-01T07:48:21.228Z,2.00
2018-07-01T07:50:48.273Z,1.98
2018-07-01T07:53:15.319Z,2.22
2018-07-01T07:55:42.373Z,2.22
2018-07-01T07:58:09.361Z,2.20
2018-07-01T08:00:36.368Z,2.03
2018-07-01T08:03:03.410Z,2.28
2018-07-01T08:05:30.460Z,2.35
2018-07-01T08:07:57.514Z,2.10
2018-07-01T08:10:24.558Z,2.70
2018-07-01T08:12:51.975Z,2.12
2018-07-01T08:15:18.859Z,2.45
2018-07-01T08:17:45.810Z,2.22
2018-07-01T08:20:12.854Z,2.28
2018-07-01T08:22:39.903Z,2.33
2018-07-01T08:25:06.849Z,2.20
2018-07-01T08:27:34.306Z,2.35
2018-07-01T08:30:01.357Z,2.03
2018-07-01T08:32:28.409Z,2.47
2018-07-01T08:34:55.561Z,2.28
2018-07-01T08:37:22.711Z,2.08
2018-07-01T08:39:49.598Z,2.30
2018-07-01T08:42:16.804Z,1.87
2018-07-01T08:44:43.859Z,2.10
2018-07-01T08:47:10.906Z,2.20
2018-07-01T08:49:37.950Z,2.00
2018-07-01T08:52:06.996Z,2.28
2018-07-01T08:54:33.999Z,2.20
2018-07-01T08:57:01.047Z,1.90
2018-07-01T08:59:28.088Z,2.10
2018-07-01T09:01:55.239Z,2.25
2018-07-01T09:04:22.295Z,2.40
2018-07-01T09:06:49.337Z,1.98
2018-07-01T09:09:16.599Z,2.28
2018-07-01T09:11:43.639Z,2.20
2018-07-01T09:14:10.633Z,2.03
2018-07-01T09:16:38.149Z,2.25
2018-07-01T09:19:05.200Z,2.25
2018-07-01T09:21:32.244Z,2.20
2018-07-01T09:24:00.774Z,2.10
2018-07-01T09:26:27.774Z,2.40
2018-07-01T09:28:54.949Z,2.33
2018-07-01T09:31:21.974Z,2.10
2018-07-01T09:33:49.027Z,2.30
2018-07-01T09:36:16.072Z,2.15
2018-07-01T09:38:43.119Z,2.40
2018-07-01T09:41:10.177Z,2.20
2018-07-01T09:43:37.218Z,2.10
2018-07-01T09:46:05.243Z,2.33
2018-07-01T09:48:32.338Z,2.95
2018-07-01T09:50:59.392Z,2.37
2018-07-01T09:53:26.435Z,2.53
2018-07-01T09:55:53.694Z,2.50
2018-07-01T09:58:20.581Z,2.30
2018-07-01T10:00:48.093Z,2.35
2018-07-01T10:03:15.148Z,2.20
2018-07-01T10:05:42.299Z,2.20
2018-07-01T10:08:09.341Z,2.08
2018-07-01T10:10:36.389Z,2.10
2018-07-01T10:13:03.335Z,2.35
2018-07-01T10:15:30.385Z,2.28
2018-07-01T10:17:57.438Z,2.22
2018-07-01T10:20:24.597Z,2.53
2018-07-01T10:23:00.637Z,2.50
2018-07-01T10:25:28.204Z,2.00
2018-07-01T10:27:55.152Z,2.50
2018-07-01T10:30:22.199Z,2.12
2018-07-01T10:32:49.280Z,2.10
2018-07-01T10:35:16.405Z,2.25
2018-07-01T10:37:46.247Z,2.47
2018-07-01T10:40:14.240Z,2.40
2018-07-01T10:42:41.543Z,2.25
2018-07-01T10:45:08.590Z,2.17
2018-07-01T10:47:36.683Z,2.20
2018-07-01T10:50:03.707Z,2.40
2018-07-01T10:52:31.129Z,2.37
2018-07-01T10:54:58.220Z,2.60
2018-07-01T10:57:25.263Z,2.42
2018-07-01T10:59:52.216Z,2.30
2018-07-01T11:02:19.258Z,2.47
2018-07-01T11:04:46.308Z,2.50
2018-07-01T11:07:13.458Z,2.30
2018-07-01T11:09:40.609Z,2.50
2018-07-01T11:12:07.664Z,2.58
2018-07-01T11:14:35.632Z,2.58
2018-07-01T11:17:02.676Z,2.30
2018-07-01T11:19:29.730Z,2.60
2018-07-01T11:21:56.773Z,2.20
2018-07-01T11:24:23.822Z,3.00
2018-07-01T11:26:51.105Z,2.37
2018-07-01T11:29:18.125Z,2.45
2018-07-01T11:31:46.126Z,2.50
2018-07-01T11:34:13.252Z,2.47
2018-07-01T11:36:40.295Z,2.50
2018-07-01T11:39:07.753Z,2.87
2018-07-01T11:41:34.705Z,2.60
2018-07-01T11:44:01.752Z,2.85
2018-07-01T11:46:28.728Z,2.42
2018-07-01T11:48:55.741Z,2.50
2018-07-01T11:51:23.098Z,3.03
2018-07-01T11:53:50.151Z,2.65
2018-07-01T11:56:19.075Z,2.50
2018-07-01T11:58:46.093Z,2.53
2018-07-01T12:01:13.446Z,2.58
2018-07-01T12:03:40.491Z,2.42
2018-07-01T12:06:07.585Z,2.55
2018-07-01T12:08:35.206Z,2.70
2018-07-01T12:11:02.251Z,2.60
2018-07-01T12:13:30.973Z,2.83
2018-07-01T12:15:57.991Z,2.70
2018-07-01T12:18:25.239Z,2.70
2018-07-01T12:20:52.598Z,2.67
2018-07-01T12:23:20.123Z,2.55
2018-07-01T12:25:47.308Z,2.78
2018-07-01T12:28:15.583Z,2.78
2018-07-01T12:30:42.737Z,2.70
2018-07-01T12:33:10.910Z,2.78
2018-07-01T12:35:37.958Z,2.42
2018-07-01T12:38:04.945Z,2.78
2018-07-01T12:40:31.954Z,2.78
2018-07-01T12:42:59.820Z,2.70
2018-07-01T12:45:28.044Z,2.58
2018-07-01T12:47:56.130Z,2.90
2018-07-01T12:50:24.635Z,2.47
2018-07-01T12:52:52.916Z,2.30
2018-07-01T12:55:22.114Z,2.80
2018-07-01T12:57:50.371Z,2.65
2018-07-01T13:00:18.459Z,2.58
2018-07-01T13:02:46.843Z,2.75
2018-07-01T13:05:13.909Z,2.60
2018-07-01T13:07:41.470Z,2.70
2018-07-01T13:10:08.516Z,3.10
2018-07-01T13:12:35.608Z,2.95
2018-07-01T13:15:02.614Z,2.67
2018-07-01T13:17:29.663Z,3.10
2018-07-01T13:19:56.918Z,2.83
2018-07-01T13:22:23.965Z,2.53
2018-07-01T13:24:51.020Z,2.65
2018-07-01T13:27:18.006Z,2.80
2018-07-01T13:29:45.023Z,2.90
2018-07-01T13:32:11.947Z,2.80
2018-07-01T13:34:39.009Z,2.83
2018-07-01T13:37:06.053Z,2.90
2018-07-01T13:39:33.103Z,2.70
2018-07-01T13:42:00.255Z,2.62
2018-07-01T13:44:27.403Z,3.03
2018-07-01T13:46:54.456Z,2.90
2018-07-01T13:49:21.559Z,2.80
2018-07-01T13:51:49.471Z,2.90
2018-07-01T13:54:16.524Z,3.40
2018-07-01T13:56:43.620Z,3.05
2018-07-01T13:59:10.718Z,2.70
2018-07-01T14:01:37.941Z,2.90
2018-07-01T14:04:04.920Z,3.40
2018-07-01T14:06:32.032Z,2.95
2018-07-01T14:08:59.531Z,2.90
2018-07-01T14:11:26.579Z,3.28
2018-07-01T14:13:54.136Z,3.00
2018-07-01T14:16:21.126Z,3.40
2018-07-01T14:18:48.178Z,3.00
2018-07-01T14:21:15.590Z,3.25
2018-07-01T14:23:42.754Z,3.12
2018-07-01T14:26:09.693Z,3.80
2018-07-01T14:28:37.148Z,3.30
2018-07-01T14:31:04.198Z,3.40
2018-07-01T14:33:31.346Z,3.33
2018-07-01T14:35:58.399Z,2.87
2018-07-01T14:38:25.445Z,3.45
2018-07-01T14:40:52.394Z,3.22
2018-07-01T14:43:19.273Z,3.08
2018-07-01T14:45:48.928Z,3.60
2018-07-01T14:48:15.827Z,3.28
2018-07-01T14:50:43.960Z,3.20
2018-07-01T14:53:11.009Z,3.05
2018-07-01T14:55:38.261Z,3.33
2018-07-01T14:58:05.312Z,3.50
2018-07-01T15:00:32.462Z,3.10
2018-07-01T15:02:59.516Z,3.40
2018-07-01T15:05:26.559Z,3.50
2018-07-01T15:07:53.607Z,3.10
2018-07-01T15:10:20.662Z,3.10
2018-07-01T15:12:47.705Z,3.30
2018-07-01T15:15:14.753Z,3.10
2018-07-01T15:17:41.699Z,3.20
2018-07-01T15:20:08.684Z,3.30
2018-07-01T15:22:35.801Z,3.30
2018-07-01T15:25:02.846Z,3.50
2018-07-01T15:27:29.892Z,3.22
2018-07-01T15:29:56.946Z,3.42
2018-07-01T15:32:23.990Z,3.15
2018-07-01T15:34:51.040Z,3.10
2018-07-01T15:37:18.093Z,3.40
2018-07-01T15:39:45.135Z,3.50
2018-07-01T15:42:12.184Z,2.85
2018-07-01T15:44:39.132Z,3.00
2018-07-01T15:47:06.181Z,2.75
2018-07-01T15:49:33.233Z,3.20
2018-07-01T15:52:00.276Z,3.05
2018-07-01T15:54:27.325Z,3.28
2018-07-01T15:56:54.235Z,3.35
2018-07-01T15:59:21.275Z,3.40
2018-07-01T16:01:48.309Z,3.17
2018-07-01T16:04:15.314Z,3.10
2018-07-01T16:06:42.388Z,2.85
2018-07-01T16:09:09.412Z,3.12
2018-07-01T16:11:36.399Z,2.90
2018-07-01T16:14:03.611Z,3.00
2018-07-01T16:16:30.600Z,3.10
2018-07-01T16:18:57.815Z,3.50
2018-07-01T16:21:24.801Z,3.30
2018-07-01T16:23:51.857Z,3.17
2018-07-01T16:26:18.962Z,3.00
2018-07-01T16:28:46.256Z,2.90
2018-07-01T16:31:13.264Z,3.45
2018-07-01T16:33:40.307Z,2.83
2018-07-01T16:36:07.565Z,3.08
2018-07-01T16:38:34.609Z,3.17
2018-07-01T16:41:01.701Z,3.00
2018-07-01T16:43:28.711Z,2.95
2018-07-01T16:45:55.755Z,2.83
2018-07-01T16:48:22.803Z,3.03
2018-07-01T16:50:49.954Z,3.15
2018-07-01T16:53:17.104Z,3.03
2018-07-01T16:55:44.255Z,3.33
2018-07-01T16:58:20.418Z,3.08
2018-07-01T17:00:47.678Z,3.03
2018-07-01T17:03:14.828Z,3.40
2018-07-01T17:05:42.180Z,3.10
2018-07-01T17:08:09.226Z,3.22
2018-07-01T17:10:36.280Z,3.05
2018-07-01T17:13:03.330Z,2.95
2018-07-01T17:15:30.373Z,2.75
2018-07-01T17:17:57.427Z,3.12
2018-07-01T17:20:24.472Z,3.33
2018-07-01T17:22:51.626Z,3.15
2018-07-01T17:25:18.580Z,3.42
2018-07-01T17:27:46.036Z,3.40
2018-07-01T17:30:13.289Z,3.10
2018-07-01T17:32:55.185Z,3.30
2018-07-01T17:35:22.255Z,3.40
2018-07-01T17:37:50.304Z,3.10
2018-07-01T17:40:17.243Z,3.10
2018-07-01T17:42:44.302Z,3.20
2018-07-01T17:45:11.756Z,3.20
2018-07-01T17:47:39.413Z,3.78
2018-07-01T17:50:06.462Z,3.25
2018-07-01T17:52:33.514Z,3.40
2018-07-01T17:55:00.763Z,3.40
2018-07-01T17:57:27.915Z,4.00
2018-07-01T17:59:55.064Z,3.60
2018-07-01T18:02:22.123Z,3.50
2018-07-01T18:04:49.163Z,3.65
2018-07-01T18:07:16.210Z,3.60
2018-07-01T18:09:43.264Z,3.28
2018-07-01T18:12:10.308Z,3.30
2018-07-01T18:14:37.358Z,3.42
2018-07-01T18:17:04.411Z,3.50
2018-07-01T18:19:31.454Z,3.28
2018-07-01T18:22:21.721Z,3.42
2018-07-01T18:24:42.853Z,3.17
2018-07-01T18:26:52.600Z,3.03
2018-07-01T18:29:20.709Z,3.17
2018-07-01T18:31:48.237Z,3.12
2018-07-01T18:34:15.286Z,3.08
2018-07-01T18:36:42.543Z,2.72
2018-07-01T18:39:09.893Z,2.67
2018-07-01T18:41:37.150Z,2.58
2018-07-01T18:44:04.397Z,2.80
2018-07-01T18:46:31.550Z,2.65
2018-07-01T18:48:58.605Z,2.72
2018-07-01T18:51:25.690Z,2.55
2018-07-01T18:53:53.252Z,2.72
2018-07-01T18:56:20.412Z,2.80
2018-07-01T18:58:47.821Z,3.15
2018-07-01T19:01:16.425Z,2.70
2018-07-01T19:03:44.168Z,2.58
2018-07-01T19:06:11.318Z,2.65
2018-07-01T19:08:38.367Z,2.83
2018-07-01T19:11:06.233Z,2.85
2018-07-01T19:13:33.642Z,2.70
2018-07-01T19:16:00.785Z,2.85
2018-07-01T19:18:28.305Z,3.30
2018-07-01T19:20:55.451Z,2.70
2018-07-01T19:23:22.500Z,3.08
2018-07-01T19:25:50.920Z,3.15
2018-07-01T19:28:19.588Z,2.70
2018-07-01T19:30:47.318Z,2.72
2018-07-01T19:33:15.178Z,2.87
2018-07-01T19:35:42.460Z,2.80
2018-07-01T19:38:09.708Z,2.70
2018-07-01T19:40:38.988Z,2.80
2018-07-01T19:43:08.455Z,2.85
2018-07-01T19:45:37.548Z,2.90
2018-07-01T19:48:05.993Z,2.72
2018-07-01T19:50:34.626Z,2.97
2018-07-01T19:53:04.595Z,3.03
2018-07-01T19:55:32.589Z,2.90
2018-07-01T19:57:59.819Z,3.05
2018-07-01T20:00:27.902Z,3.00
2018-07-01T20:02:56.680Z,3.10
2018-07-01T20:05:24.036Z,2.50
2018-07-01T20:07:52.731Z,3.08
2018-07-01T20:10:19.874Z,2.78
2018-07-01T20:12:47.382Z,2.80
2018-07-01T20:15:15.328Z,2.65
2018-07-01T20:17:42.356Z,2.67
2018-07-01T20:20:09.404Z,2.70
2018-07-01T20:22:36.457Z,3.05
2018-07-01T20:25:03.849Z,2.20
2018-07-01T20:27:31.164Z,2.50
2018-07-01T20:29:58.215Z,2.47
2018-07-01T20:32:25.257Z,2.70
2018-07-01T20:34:52.305Z,2.37
2018-07-01T20:37:19.765Z,2.80
2018-07-01T20:39:47.529Z,2.67
2018-07-01T20:42:15.813Z,2.60
2018-07-01T20:44:42.857Z,2.92
2018-07-01T20:47:09.905Z,2.70
2018-07-01T20:49:38.228Z,2.72
2018-07-01T20:52:06.908Z,2.72
2018-07-01T20:54:35.844Z,2.40
2018-07-01T20:57:02.852Z,2.80
2018-07-01T20:59:29.863Z,2.50
2018-07-01T21:04:31.877Z,2.92
2018-07-01T21:06:58.888Z,2.70
2018-07-01T21:09:25.840Z,3.20
2018-07-01T21:11:52.886Z,2.90
2018-07-01T21:14:19.942Z,2.87
2018-07-01T21:16:46.986Z,3.00
2018-07-01T21:19:14.030Z,2.78
2018-07-01T21:21:41.289Z,3.22
2018-07-01T21:24:08.334Z,3.12
2018-07-01T21:26:35.378Z,3.22
2018-07-01T21:29:02.529Z,3.10
2018-07-01T21:31:29.681Z,3.30
2018-07-01T21:33:57.153Z,2.92
2018-07-01T21:36:24.193Z,3.00
2018-07-01T21:38:51.652Z,3.00
2018-07-01T21:41:18.701Z,3.00
2018-07-01T21:43:45.744Z,3.20
2018-07-01T21:46:12.798Z,3.25
2018-07-01T21:48:39.842Z,2.75
2018-07-01T21:51:06.992Z,2.62
2018-07-01T21:53:34.041Z,2.90
2018-07-01T21:56:01.094Z,3.15
2018-07-01T21:58:28.139Z,2.83
2018-07-01T22:00:55.493Z,2.80
2018-07-01T22:03:22.547Z,2.87
2018-07-01T22:05:49.465Z,2.67
2018-07-01T22:08:16.585Z,2.70
2018-07-01T22:10:49.627Z,2.70
2018-07-01T22:13:16.780Z,2.67
2018-07-01T22:16:00.728Z,2.65
2018-07-01T22:18:27.773Z,3.00
2018-07-01T22:20:54.820Z,2.70
2018-07-01T22:23:21.805Z,2.80
2018-07-01T22:25:48.816Z,2.70
2018-07-01T22:28:15.868Z,2.72
2018-07-01T22:30:42.912Z,2.87
2018-07-01T22:33:09.962Z,2.50
2018-07-01T22:35:37.015Z,3.00
2018-07-01T22:38:04.058Z,2.70
2018-07-01T22:40:31.124Z,2.85
2018-07-01T22:42:58.160Z,2.75
2018-07-01T22:45:25.618Z,2.70
2018-07-01T22:47:52.664Z,2.67
2018-07-01T22:50:19.710Z,2.70
2018-07-01T22:52:46.701Z,2.72
2018-07-01T22:55:13.706Z,2.62
2018-07-01T22:57:40.761Z,2.50
2018-07-01T23:00:08.111Z,2.75
2018-07-01T23:02:41.206Z,2.90
2018-07-01T23:05:09.068Z,2.53
2018-07-01T23:07:36.630Z,2.53
2018-07-01T23:10:03.680Z,2.55
2018-07-01T23:12:30.733Z,2.55
2018-07-01T23:14:59.420Z,2.92
2018-07-01T23:17:26.463Z,2.50
2018-07-01T23:19:53.513Z,2.47
2018-07-01T23:22:20.565Z,2.47
2018-07-01T23:24:47.643Z,3.10
2018-07-01T23:27:14.657Z,2.60
2018-07-01T23:29:41.650Z,2.58
2018-07-01T23:32:09.368Z,2.60
2018-07-01T23:34:37.339Z,2.90
2018-07-01T23:37:04.285Z,2.55
2018-07-01T23:39:31.333Z,2.60
2018-07-01T23:41:58.387Z,3.00
2018-07-01T23:44:25.367Z,2.67
2018-07-01T23:46:52.479Z,2.40
2018-07-01T23:49:19.533Z,2.60
2018-07-01T23:51:48.268Z,2.40
2018-07-01T23:54:15.264Z,2.72
2018-07-01T23:56:42.313Z,2.55
2018-07-01T23:59:09.366Z,2.80
